Barra da Estiva, Brazil
Current Conditions -  °F | °C
As of 2:00 PM on Saturday 20 Dec 2014 (Local Time) from SBQV Reporting Station
Scattered Clouds Scattered Clouds  
Wind Chill: 82°   Ceiling: Unl
Heat Index: 86°   Visibility: 6mi
Dew Point: 70°   Wind: 8mph
Humidity: 66%   Direction: 10°N
Pressure: 30.03"   Gusts: NA
Location:  13.63°S, 41.33°W
Report Text: SBQV 201700Z 01007KT 9999 SCT020 28/21 Q1017
Loading
Personal Weather Stations






























Interactive Weather Map New forecast layout! Learn more

10-Day Weather Forecast

Advertisements
Track Severe Weather on mobile